sensor_id;sensor_type;location;lat;lon;timestamp;temperature;humidity
30572;DHT22;17348;50.948;10.696;2023-07-02T00:00:29;17.90;99.90
30572;DHT22;17348;50.948;10.696;2023-07-02T00:03:32;17.90;99.90
30572;DHT22;17348;50.948;10.696;2023-07-02T00:06:34;17.90;99.90
30572;DHT22;17348;50.948;10.696;2023-07-02T00:09:41;17.90;99.90
30572;DHT22;17348;50.948;10.696;2023-07-02T00:12:45;17.90;99.90
30572;DHT22;17348;50.948;10.696;2023-07-02T00:15:47;17.90;99.90
30572;DHT22;17348;50.948;10.696;2023-07-02T00:18:50;17.90;99.90
30572;DHT22;17348;50.948;10.696;2023-07-02T00:21:53;17.90;99.90
30572;DHT22;17348;50.948;10.696;2023-07-02T00:24:56;17.90;99.90
30572;DHT22;17348;50.948;10.696;2023-07-02T00:28:00;17.90;99.90
30572;DHT22;17348;50.948;10.696;2023-07-02T00:31:02;17.90;99.90
30572;DHT22;17348;50.948;10.696;2023-07-02T00:34:05;17.90;99.90
30572;DHT22;17348;50.948;10.696;2023-07-02T00:37:07;17.90;99.90
30572;DHT22;17348;50.948;10.696;2023-07-02T00:40:10;17.90;99.90
30572;DHT22;17348;50.948;10.696;2023-07-02T00:43:14;18.00;99.90
30572;DHT22;17348;50.948;10.696;2023-07-02T00:46:18;17.90;99.90
30572;DHT22;17348;50.948;10.696;2023-07-02T00:49:21;18.00;99.90
30572;DHT22;17348;50.948;10.696;2023-07-02T00:52:25;17.90;99.90
30572;DHT22;17348;50.948;10.696;2023-07-02T00:55:27;17.90;99.90
30572;DHT22;17348;50.948;10.696;2023-07-02T00:58:31;17.90;99.90
30572;DHT22;17348;50.948;10.696;2023-07-02T01:01:34;17.90;99.90
30572;DHT22;17348;50.948;10.696;2023-07-02T01:04:39;17.90;99.90
30572;DHT22;17348;50.948;10.696;2023-07-02T01:07:41;17.90;99.90
30572;DHT22;17348;50.948;10.696;2023-07-02T01:10:44;17.80;99.90
30572;DHT22;17348;50.948;10.696;2023-07-02T01:13:48;17.80;99.90
30572;DHT22;17348;50.948;10.696;2023-07-02T01:16:52;17.80;99.90
30572;DHT22;17348;50.948;10.696;2023-07-02T01:19:56;17.80;99.90
30572;DHT22;17348;50.948;10.696;2023-07-02T01:22:59;17.80;99.90
30572;DHT22;17348;50.948;10.696;2023-07-02T01:26:04;17.80;99.90
30572;DHT22;17348;50.948;10.696;2023-07-02T01:29:15;17.80;99.90
30572;DHT22;17348;50.948;10.696;2023-07-02T01:32:18;17.80;99.90
30572;DHT22;17348;50.948;10.696;2023-07-02T01:35:22;17.80;99.90
30572;DHT22;17348;50.948;10.696;2023-07-02T01:38:25;17.80;99.90
30572;DHT22;17348;50.948;10.696;2023-07-02T01:41:28;17.70;99.90
30572;DHT22;17348;50.948;10.696;2023-07-02T01:44:30;17.70;99.90
30572;DHT22;17348;50.948;10.696;2023-07-02T01:47:33;17.70;99.90
30572;DHT22;17348;50.948;10.696;2023-07-02T01:50:36;17.70;99.90
30572;DHT22;17348;50.948;10.696;2023-07-02T01:53:39;17.60;99.90
30572;DHT22;17348;50.948;10.696;2023-07-02T01:56:41;17.60;99.90
30572;DHT22;17348;50.948;10.696;2023-07-02T01:59:43;17.50;99.90
30572;DHT22;17348;50.948;10.696;2023-07-02T02:02:46;17.50;99.90
30572;DHT22;17348;50.948;10.696;2023-07-02T02:05:49;17.50;99.90
30572;DHT22;17348;50.948;10.696;2023-07-02T02:08:52;17.50;99.90
30572;DHT22;17348;50.948;10.696;2023-07-02T02:11:54;17.40;99.90
30572;DHT22;17348;50.948;10.696;2023-07-02T02:14:56;17.40;99.90
30572;DHT22;17348;50.948;10.696;2023-07-02T02:17:59;17.40;99.90
30572;DHT22;17348;50.948;10.696;2023-07-02T02:21:03;17.40;99.90
30572;DHT22;17348;50.948;10.696;2023-07-02T02:24:06;17.30;99.90
30572;DHT22;17348;50.948;10.696;2023-07-02T02:27:08;17.30;99.90
30572;DHT22;17348;50.948;10.696;2023-07-02T02:30:11;17.30;99.90
30572;DHT22;17348;50.948;10.696;2023-07-02T02:33:13;17.30;99.90
30572;DHT22;17348;50.948;10.696;2023-07-02T02:36:17;17.20;99.90
30572;DHT22;17348;50.948;10.696;2023-07-02T02:39:20;17.20;99.90
30572;DHT22;17348;50.948;10.696;2023-07-02T02:42:22;17.20;99.90
30572;DHT22;17348;50.948;10.696;2023-07-02T02:45:24;17.20;99.90
30572;DHT22;17348;50.948;10.696;2023-07-02T02:48:27;17.20;99.90
30572;DHT22;17348;50.948;10.696;2023-07-02T02:51:30;17.20;99.90
30572;DHT22;17348;50.948;10.696;2023-07-02T02:54:33;17.20;99.90
30572;DHT22;17348;50.948;10.696;2023-07-02T02:57:35;17.10;99.90
30572;DHT22;17348;50.948;10.696;2023-07-02T03:00:37;17.10;99.90
30572;DHT22;17348;50.948;10.696;2023-07-02T03:03:44;17.10;99.90
30572;DHT22;17348;50.948;10.696;2023-07-02T03:06:48;17.10;99.90
30572;DHT22;17348;50.948;10.696;2023-07-02T03:09:50;17.10;99.90
30572;DHT22;17348;50.948;10.696;2023-07-02T03:12:52;17.10;99.90
30572;DHT22;17348;50.948;10.696;2023-07-02T03:15:55;17.10;99.90
30572;DHT22;17348;50.948;10.696;2023-07-02T03:18:57;17.10;99.90
30572;DHT22;17348;50.948;10.696;2023-07-02T03:22:01;17.10;99.90
30572;DHT22;17348;50.948;10.696;2023-07-02T03:25:04;17.10;99.90
30572;DHT22;17348;50.948;10.696;2023-07-02T03:28:06;17.10;99.90
30572;DHT22;17348;50.948;10.696;2023-07-02T03:31:09;17.10;99.90
30572;DHT22;17348;50.948;10.696;2023-07-02T03:34:11;17.10;99.90
30572;DHT22;17348;50.948;10.696;2023-07-02T03:37:15;17.10;99.90
30572;DHT22;17348;50.948;10.696;2023-07-02T03:40:18;17.10;99.90
30572;DHT22;17348;50.948;10.696;2023-07-02T03:43:20;17.10;99.90
30572;DHT22;17348;50.948;10.696;2023-07-02T03:46:22;17.10;99.90
30572;DHT22;17348;50.948;10.696;2023-07-02T03:49:25;17.10;99.90
30572;DHT22;17348;50.948;10.696;2023-07-02T03:52:28;17.10;99.90
30572;DHT22;17348;50.948;10.696;2023-07-02T03:55:31;17.10;99.90
30572;DHT22;17348;50.948;10.696;2023-07-02T03:58:33;17.10;99.90
30572;DHT22;17348;50.948;10.696;2023-07-02T04:01:35;17.10;99.90
30572;DHT22;17348;50.948;10.696;2023-07-02T04:04:38;17.10;99.90
30572;DHT22;17348;50.948;10.696;2023-07-02T04:07:42;17.00;99.90
30572;DHT22;17348;50.948;10.696;2023-07-02T04:10:44;17.00;99.90
30572;DHT22;17348;50.948;10.696;2023-07-02T04:13:46;17.10;99.90
30572;DHT22;17348;50.948;10.696;2023-07-02T04:16:48;17.10;99.90
30572;DHT22;17348;50.948;10.696;2023-07-02T04:19:54;17.10;99.90
30572;DHT22;17348;50.948;10.696;2023-07-02T04:22:58;17.10;99.90
30572;DHT22;17348;50.948;10.696;2023-07-02T04:26:00;17.10;99.90
30572;DHT22;17348;50.948;10.696;2023-07-02T04:29:03;17.00;99.90
30572;DHT22;17348;50.948;10.696;2023-07-02T04:32:06;17.00;99.90
30572;DHT22;17348;50.948;10.696;2023-07-02T04:35:09;17.10;99.90
30572;DHT22;17348;50.948;10.696;2023-07-02T04:38:13;17.10;99.90
30572;DHT22;17348;50.948;10.696;2023-07-02T04:41:17;17.10;99.90
30572;DHT22;17348;50.948;10.696;2023-07-02T04:44:19;17.10;99.90
30572;DHT22;17348;50.948;10.696;2023-07-02T04:47:23;17.10;99.90
30572;DHT22;17348;50.948;10.696;2023-07-02T04:50:26;17.00;99.90
30572;DHT22;17348;50.948;10.696;2023-07-02T04:53:29;17.10;99.90
30572;DHT22;17348;50.948;10.696;2023-07-02T04:56:31;17.10;99.90
30572;DHT22;17348;50.948;10.696;2023-07-02T04:59:34;17.10;99.90
30572;DHT22;17348;50.948;10.696;2023-07-02T05:02:36;17.20;99.90
30572;DHT22;17348;50.948;10.696;2023-07-02T05:05:39;17.20;99.90
30572;DHT22;17348;50.948;10.696;2023-07-02T05:08:42;17.20;99.90
30572;DHT22;17348;50.948;10.696;2023-07-02T05:11:45;17.20;99.90
30572;DHT22;17348;50.948;10.696;2023-07-02T05:14:47;17.20;99.90
30572;DHT22;17348;50.948;10.696;2023-07-02T05:17:49;17.20;99.90
30572;DHT22;17348;50.948;10.696;2023-07-02T05:20:52;17.20;99.90
30572;DHT22;17348;50.948;10.696;2023-07-02T05:23:55;17.20;99.90
30572;DHT22;17348;50.948;10.696;2023-07-02T05:26:57;17.30;99.90
30572;DHT22;17348;50.948;10.696;2023-07-02T05:30:00;17.30;99.90
30572;DHT22;17348;50.948;10.696;2023-07-02T05:33:02;17.30;99.90
30572;DHT22;17348;50.948;10.696;2023-07-02T05:36:05;17.40;99.90
30572;DHT22;17348;50.948;10.696;2023-07-02T05:39:08;17.30;99.90
30572;DHT22;17348;50.948;10.696;2023-07-02T05:42:11;17.40;99.90
30572;DHT22;17348;50.948;10.696;2023-07-02T05:45:13;17.40;99.90
30572;DHT22;17348;50.948;10.696;2023-07-02T05:48:15;17.50;99.90
30572;DHT22;17348;50.948;10.696;2023-07-02T05:51:20;17.40;99.90
30572;DHT22;17348;50.948;10.696;2023-07-02T05:54:24;17.50;99.90
30572;DHT22;17348;50.948;10.696;2023-07-02T05:57:26;17.60;99.90
30572;DHT22;17348;50.948;10.696;2023-07-02T06:00:29;17.60;99.90
30572;DHT22;17348;50.948;10.696;2023-07-02T06:03:31;17.70;99.90
30572;DHT22;17348;50.948;10.696;2023-07-02T06:06:34;17.80;99.90
30572;DHT22;17348;50.948;10.696;2023-07-02T06:09:37;17.80;99.90
30572;DHT22;17348;50.948;10.696;2023-07-02T06:12:40;17.80;99.90
30572;DHT22;17348;50.948;10.696;2023-07-02T06:15:44;17.80;99.90
30572;DHT22;17348;50.948;10.696;2023-07-02T06:18:47;17.90;99.90
30572;DHT22;17348;50.948;10.696;2023-07-02T06:21:50;18.00;99.90
30572;DHT22;17348;50.948;10.696;2023-07-02T06:24:53;18.10;99.90
30572;DHT22;17348;50.948;10.696;2023-07-02T06:27:56;18.30;99.90
30572;DHT22;17348;50.948;10.696;2023-07-02T06:30:59;18.30;99.90
30572;DHT22;17348;50.948;10.696;2023-07-02T06:34:01;18.40;99.90
30572;DHT22;17348;50.948;10.696;2023-07-02T06:37:04;18.40;99.90
30572;DHT22;17348;50.948;10.696;2023-07-02T06:40:09;18.50;99.90
30572;DHT22;17348;50.948;10.696;2023-07-02T06:43:11;18.50;99.90
30572;DHT22;17348;50.948;10.696;2023-07-02T06:46:14;18.60;99.90
30572;DHT22;17348;50.948;10.696;2023-07-02T06:49:16;18.60;99.90
30572;DHT22;17348;50.948;10.696;2023-07-02T06:52:18;18.70;99.90
30572;DHT22;17348;50.948;10.696;2023-07-02T06:55:22;18.80;99.90
30572;DHT22;17348;50.948;10.696;2023-07-02T06:58:25;18.90;99.90
30572;DHT22;17348;50.948;10.696;2023-07-02T07:01:27;18.90;99.90
30572;DHT22;17348;50.948;10.696;2023-07-02T07:04:29;18.80;99.90
30572;DHT22;17348;50.948;10.696;2023-07-02T07:07:32;18.70;99.90
30572;DHT22;17348;50.948;10.696;2023-07-02T07:10:36;18.60;99.90
30572;DHT22;17348;50.948;10.696;2023-07-02T07:13:38;18.60;99.90
30572;DHT22;17348;50.948;10.696;2023-07-02T07:16:40;18.70;99.90
30572;DHT22;17348;50.948;10.696;2023-07-02T07:19:43;18.80;99.90
30572;DHT22;17348;50.948;10.696;2023-07-02T07:22:45;18.80;99.90
30572;DHT22;17348;50.948;10.696;2023-07-02T07:25:49;18.90;99.90
30572;DHT22;17348;50.948;10.696;2023-07-02T07:28:51;18.80;99.90
30572;DHT22;17348;50.948;10.696;2023-07-02T07:31:55;18.80;99.90
30572;DHT22;17348;50.948;10.696;2023-07-02T07:34:57;18.90;99.90
30572;DHT22;17348;50.948;10.696;2023-07-02T07:38:00;19.00;99.90
30572;DHT22;17348;50.948;10.696;2023-07-02T07:41:03;19.10;99.90
30572;DHT22;17348;50.948;10.696;2023-07-02T07:44:06;19.20;99.90
30572;DHT22;17348;50.948;10.696;2023-07-02T07:47:08;19.20;99.90
30572;DHT22;17348;50.948;10.696;2023-07-02T07:50:10;19.10;99.90
30572;DHT22;17348;50.948;10.696;2023-07-02T07:53:13;19.20;99.90
30572;DHT22;17348;50.948;10.696;2023-07-02T07:56:16;19.30;99.90
30572;DHT22;17348;50.948;10.696;2023-07-02T07:59:19;19.30;99.90
30572;DHT22;17348;50.948;10.696;2023-07-02T08:02:21;19.30;99.90
30572;DHT22;17348;50.948;10.696;2023-07-02T08:05:27;19.30;99.90
30572;DHT22;17348;50.948;10.696;2023-07-02T08:08:30;19.40;99.90
30572;DHT22;17348;50.948;10.696;2023-07-02T08:11:34;19.40;99.90
30572;DHT22;17348;50.948;10.696;2023-07-02T08:14:39;19.50;99.90
30572;DHT22;17348;50.948;10.696;2023-07-02T08:17:41;19.60;99.90
30572;DHT22;17348;50.948;10.696;2023-07-02T08:20:44;19.70;99.90
30572;DHT22;17348;50.948;10.696;2023-07-02T08:23:46;19.80;99.90
30572;DHT22;17348;50.948;10.696;2023-07-02T08:26:50;19.90;99.90
30572;DHT22;17348;50.948;10.696;2023-07-02T08:29:52;19.90;99.90
30572;DHT22;17348;50.948;10.696;2023-07-02T08:32:55;19.80;99.90
30572;DHT22;17348;50.948;10.696;2023-07-02T08:35:57;19.70;99.90
30572;DHT22;17348;50.948;10.696;2023-07-02T08:39:01;19.70;99.90
30572;DHT22;17348;50.948;10.696;2023-07-02T08:42:06;19.70;99.90
30572;DHT22;17348;50.948;10.696;2023-07-02T08:45:10;19.80;99.90
30572;DHT22;17348;50.948;10.696;2023-07-02T08:48:18;19.80;99.90
30572;DHT22;17348;50.948;10.696;2023-07-02T08:51:25;19.90;99.90
30572;DHT22;17348;50.948;10.696;2023-07-02T08:54:27;19.90;99.90
30572;DHT22;17348;50.948;10.696;2023-07-02T08:57:31;19.90;99.90
30572;DHT22;17348;50.948;10.696;2023-07-02T09:00:34;20.00;99.90
30572;DHT22;17348;50.948;10.696;2023-07-02T09:03:39;20.00;99.90
30572;DHT22;17348;50.948;10.696;2023-07-02T09:09:52;20.20;99.90
30572;DHT22;17348;50.948;10.696;2023-07-02T09:13:05;20.30;99.90
30572;DHT22;17348;50.948;10.696;2023-07-02T09:16:08;20.40;99.90
30572;DHT22;17348;50.948;10.696;2023-07-02T09:19:10;20.60;99.90
30572;DHT22;17348;50.948;10.696;2023-07-02T09:22:13;20.80;99.90
30572;DHT22;17348;50.948;10.696;2023-07-02T09:25:17;20.90;99.90
30572;DHT22;17348;50.948;10.696;2023-07-02T09:28:21;20.70;99.90
30572;DHT22;17348;50.948;10.696;2023-07-02T09:31:24;20.70;99.90
30572;DHT22;17348;50.948;10.696;2023-07-02T09:34:27;20.70;99.90
30572;DHT22;17348;50.948;10.696;2023-07-02T09:37:30;20.90;99.90
30572;DHT22;17348;50.948;10.696;2023-07-02T09:40:33;21.10;99.90
30572;DHT22;17348;50.948;10.696;2023-07-02T09:43:37;21.40;99.90
30572;DHT22;17348;50.948;10.696;2023-07-02T09:46:43;21.60;99.90
30572;DHT22;17348;50.948;10.696;2023-07-02T09:49:50;21.80;99.90
30572;DHT22;17348;50.948;10.696;2023-07-02T09:52:54;21.90;99.90
30572;DHT22;17348;50.948;10.696;2023-07-02T09:55:57;22.10;99.90
30572;DHT22;17348;50.948;10.696;2023-07-02T09:59:00;22.20;99.90
30572;DHT22;17348;50.948;10.696;2023-07-02T10:02:03;22.20;99.90
30572;DHT22;17348;50.948;10.696;2023-07-02T10:05:06;22.10;99.90
30572;DHT22;17348;50.948;10.696;2023-07-02T10:08:14;22.20;99.90
30572;DHT22;17348;50.948;10.696;2023-07-02T10:11:18;22.20;99.90
30572;DHT22;17348;50.948;10.696;2023-07-02T10:14:22;22.30;99.90
30572;DHT22;17348;50.948;10.696;2023-07-02T10:17:26;22.40;99.90
30572;DHT22;17348;50.948;10.696;2023-07-02T10:20:33;22.40;99.90
30572;DHT22;17348;50.948;10.696;2023-07-02T10:23:36;22.60;99.90
30572;DHT22;17348;50.948;10.696;2023-07-02T10:26:38;22.70;99.90
30572;DHT22;17348;50.948;10.696;2023-07-02T10:29:49;22.80;99.90
30572;DHT22;17348;50.948;10.696;2023-07-02T10:32:51;22.70;99.90
30572;DHT22;17348;50.948;10.696;2023-07-02T10:35:54;22.60;99.90
30572;DHT22;17348;50.948;10.696;2023-07-02T10:39:01;22.40;99.90
30572;DHT22;17348;50.948;10.696;2023-07-02T10:42:07;22.00;99.90
30572;DHT22;17348;50.948;10.696;2023-07-02T10:45:10;21.90;99.90
30572;DHT22;17348;50.948;10.696;2023-07-02T10:48:13;22.00;99.90
30572;DHT22;17348;50.948;10.696;2023-07-02T10:51:15;22.00;99.90
30572;DHT22;17348;50.948;10.696;2023-07-02T10:54:19;22.10;99.90
30572;DHT22;17348;50.948;10.696;2023-07-02T10:57:21;22.20;99.90
30572;DHT22;17348;50.948;10.696;2023-07-02T11:00:25;22.40;99.90
30572;DHT22;17348;50.948;10.696;2023-07-02T11:03:27;22.70;99.90
30572;DHT22;17348;50.948;10.696;2023-07-02T11:06:32;22.80;99.90
30572;DHT22;17348;50.948;10.696;2023-07-02T11:09:34;22.70;99.90
30572;DHT22;17348;50.948;10.696;2023-07-02T11:12:37;22.70;99.90
30572;DHT22;17348;50.948;10.696;2023-07-02T11:15:40;22.50;99.90
30572;DHT22;17348;50.948;10.696;2023-07-02T11:18:43;22.40;99.90
30572;DHT22;17348;50.948;10.696;2023-07-02T11:21:51;22.40;99.90
30572;DHT22;17348;50.948;10.696;2023-07-02T11:24:54;22.60;99.90
30572;DHT22;17348;50.948;10.696;2023-07-02T11:28:02;22.80;99.90
30572;DHT22;17348;50.948;10.696;2023-07-02T11:31:06;23.00;99.90
30572;DHT22;17348;50.948;10.696;2023-07-02T11:34:13;23.10;99.90
30572;DHT22;17348;50.948;10.696;2023-07-02T11:37:16;23.20;99.90
30572;DHT22;17348;50.948;10.696;2023-07-02T11:40:18;23.30;99.90
30572;DHT22;17348;50.948;10.696;2023-07-02T11:43:21;23.30;99.90
30572;DHT22;17348;50.948;10.696;2023-07-02T11:46:24;23.30;99.90
30572;DHT22;17348;50.948;10.696;2023-07-02T11:49:27;23.30;99.90
30572;DHT22;17348;50.948;10.696;2023-07-02T11:52:29;23.40;99.90
30572;DHT22;17348;50.948;10.696;2023-07-02T11:55:31;23.50;99.90
30572;DHT22;17348;50.948;10.696;2023-07-02T11:58:34;23.60;99.90
30572;DHT22;17348;50.948;10.696;2023-07-02T12:01:37;23.60;99.90
30572;DHT22;17348;50.948;10.696;2023-07-02T12:04:40;23.60;99.90
30572;DHT22;17348;50.948;10.696;2023-07-02T12:07:42;23.50;99.90
30572;DHT22;17348;50.948;10.696;2023-07-02T12:10:44;23.50;99.90
30572;DHT22;17348;50.948;10.696;2023-07-02T12:13:47;23.40;99.90
30572;DHT22;17348;50.948;10.696;2023-07-02T12:16:50;23.10;99.90
30572;DHT22;17348;50.948;10.696;2023-07-02T12:19:53;23.00;99.90
30572;DHT22;17348;50.948;10.696;2023-07-02T12:22:56;23.00;99.90
30572;DHT22;17348;50.948;10.696;2023-07-02T12:25:58;22.90;99.90
30572;DHT22;17348;50.948;10.696;2023-07-02T12:29:01;22.70;99.90
30572;DHT22;17348;50.948;10.696;2023-07-02T12:32:05;22.50;99.90
30572;DHT22;17348;50.948;10.696;2023-07-02T12:35:08;22.30;99.90
30572;DHT22;17348;50.948;10.696;2023-07-02T12:38:10;22.00;99.90
30572;DHT22;17348;50.948;10.696;2023-07-02T12:41:12;22.00;99.90
30572;DHT22;17348;50.948;10.696;2023-07-02T12:44:15;21.80;99.90
30572;DHT22;17348;50.948;10.696;2023-07-02T12:47:19;21.80;99.90
30572;DHT22;17348;50.948;10.696;2023-07-02T12:50:21;21.90;99.90
30572;DHT22;17348;50.948;10.696;2023-07-02T12:53:25;21.70;99.90
30572;DHT22;17348;50.948;10.696;2023-07-02T12:56:28;21.70;99.90
30572;DHT22;17348;50.948;10.696;2023-07-02T12:59:30;21.50;99.90
30572;DHT22;17348;50.948;10.696;2023-07-02T13:02:34;21.50;99.90
30572;DHT22;17348;50.948;10.696;2023-07-02T13:05:36;21.50;99.90
30572;DHT22;17348;50.948;10.696;2023-07-02T13:08:39;21.50;99.90
30572;DHT22;17348;50.948;10.696;2023-07-02T13:11:41;21.50;99.90
30572;DHT22;17348;50.948;10.696;2023-07-02T13:14:43;21.50;99.90
30572;DHT22;17348;50.948;10.696;2023-07-02T13:17:47;21.70;99.90
30572;DHT22;17348;50.948;10.696;2023-07-02T13:20:49;21.80;99.90
30572;DHT22;17348;50.948;10.696;2023-07-02T13:23:52;21.90;99.90
30572;DHT22;17348;50.948;10.696;2023-07-02T13:26:54;22.00;99.90
30572;DHT22;17348;50.948;10.696;2023-07-02T13:29:57;22.00;99.90
30572;DHT22;17348;50.948;10.696;2023-07-02T13:33:00;22.20;99.90
30572;DHT22;17348;50.948;10.696;2023-07-02T13:36:03;22.50;99.90
30572;DHT22;17348;50.948;10.696;2023-07-02T13:39:06;22.90;99.90
30572;DHT22;17348;50.948;10.696;2023-07-02T13:42:09;23.10;99.90
30572;DHT22;17348;50.948;10.696;2023-07-02T13:45:12;23.20;99.90
30572;DHT22;17348;50.948;10.696;2023-07-02T13:48:15;23.20;99.90
30572;DHT22;17348;50.948;10.696;2023-07-02T13:51:18;23.30;99.90
30572;DHT22;17348;50.948;10.696;2023-07-02T13:54:20;23.30;99.90
30572;DHT22;17348;50.948;10.696;2023-07-02T13:57:24;23.20;99.90
30572;DHT22;17348;50.948;10.696;2023-07-02T14:00:28;23.10;99.90
30572;DHT22;17348;50.948;10.696;2023-07-02T14:03:30;22.90;99.90
30572;DHT22;17348;50.948;10.696;2023-07-02T14:06:33;22.60;99.90
30572;DHT22;17348;50.948;10.696;2023-07-02T14:09:35;22.70;99.90
30572;DHT22;17348;50.948;10.696;2023-07-02T14:12:38;22.50;99.90
30572;DHT22;17348;50.948;10.696;2023-07-02T14:15:42;22.60;99.90
30572;DHT22;17348;50.948;10.696;2023-07-02T14:18:44;22.70;99.90
30572;DHT22;17348;50.948;10.696;2023-07-02T14:21:47;22.60;99.90
30572;DHT22;17348;50.948;10.696;2023-07-02T14:24:50;22.80;99.90
30572;DHT22;17348;50.948;10.696;2023-07-02T14:27:52;23.10;99.90
30572;DHT22;17348;50.948;10.696;2023-07-02T14:31:00;23.20;99.90
30572;DHT22;17348;50.948;10.696;2023-07-02T14:34:03;23.30;99.90
30572;DHT22;17348;50.948;10.696;2023-07-02T14:37:05;23.30;99.90
30572;DHT22;17348;50.948;10.696;2023-07-02T14:40:09;23.40;99.90
30572;DHT22;17348;50.948;10.696;2023-07-02T14:43:11;23.20;99.90
30572;DHT22;17348;50.948;10.696;2023-07-02T14:46:15;23.20;99.90
30572;DHT22;17348;50.948;10.696;2023-07-02T14:49:18;23.40;99.90
30572;DHT22;17348;50.948;10.696;2023-07-02T14:52:21;23.50;99.90
30572;DHT22;17348;50.948;10.696;2023-07-02T14:55:23;23.50;99.90
30572;DHT22;17348;50.948;10.696;2023-07-02T14:58:26;23.50;99.90
30572;DHT22;17348;50.948;10.696;2023-07-02T15:01:30;23.30;99.90
30572;DHT22;17348;50.948;10.696;2023-07-02T15:04:32;23.20;99.90
30572;DHT22;17348;50.948;10.696;2023-07-02T15:07:35;23.00;99.90
30572;DHT22;17348;50.948;10.696;2023-07-02T15:10:37;22.80;99.90
30572;DHT22;17348;50.948;10.696;2023-07-02T15:13:40;22.60;99.90
30572;DHT22;17348;50.948;10.696;2023-07-02T15:16:44;22.60;99.90
30572;DHT22;17348;50.948;10.696;2023-07-02T15:19:46;22.40;99.90
30572;DHT22;17348;50.948;10.696;2023-07-02T15:22:49;22.50;99.90
30572;DHT22;17348;50.948;10.696;2023-07-02T15:25:51;22.70;99.90
30572;DHT22;17348;50.948;10.696;2023-07-02T15:28:54;22.70;99.90
30572;DHT22;17348;50.948;10.696;2023-07-02T15:31:58;22.60;99.90
30572;DHT22;17348;50.948;10.696;2023-07-02T15:35:00;22.50;99.90
30572;DHT22;17348;50.948;10.696;2023-07-02T15:38:02;22.40;99.90
30572;DHT22;17348;50.948;10.696;2023-07-02T15:41:07;22.40;99.90
30572;DHT22;17348;50.948;10.696;2023-07-02T15:44:10;22.40;99.90
30572;DHT22;17348;50.948;10.696;2023-07-02T15:47:14;22.60;99.90
30572;DHT22;17348;50.948;10.696;2023-07-02T15:50:16;22.80;99.90
30572;DHT22;17348;50.948;10.696;2023-07-02T15:53:18;23.00;99.90
30572;DHT22;17348;50.948;10.696;2023-07-02T15:56:22;23.10;99.90
30572;DHT22;17348;50.948;10.696;2023-07-02T15:59:24;23.00;99.90
30572;DHT22;17348;50.948;10.696;2023-07-02T16:02:28;23.00;99.90
30572;DHT22;17348;50.948;10.696;2023-07-02T16:05:36;22.90;99.90
30572;DHT22;17348;50.948;10.696;2023-07-02T16:08:39;22.80;99.90
30572;DHT22;17348;50.948;10.696;2023-07-02T16:11:41;22.90;99.90
30572;DHT22;17348;50.948;10.696;2023-07-02T16:14:43;22.80;99.90
30572;DHT22;17348;50.948;10.696;2023-07-02T16:17:48;22.80;99.90
30572;DHT22;17348;50.948;10.696;2023-07-02T16:20:57;23.00;99.90
30572;DHT22;17348;50.948;10.696;2023-07-02T16:24:00;23.00;99.90
30572;DHT22;17348;50.948;10.696;2023-07-02T16:27:06;23.10;99.90
30572;DHT22;17348;50.948;10.696;2023-07-02T16:30:11;23.20;99.90
30572;DHT22;17348;50.948;10.696;2023-07-02T16:33:16;23.40;99.90
30572;DHT22;17348;50.948;10.696;2023-07-02T16:36:18;23.50;99.90
30572;DHT22;17348;50.948;10.696;2023-07-02T16:39:21;23.50;99.90
30572;DHT22;17348;50.948;10.696;2023-07-02T16:42:24;23.40;99.90
30572;DHT22;17348;50.948;10.696;2023-07-02T16:45:26;23.20;99.70
30572;DHT22;17348;50.948;10.696;2023-07-02T16:48:30;22.90;99.90
30572;DHT22;17348;50.948;10.696;2023-07-02T16:51:33;22.70;99.90
30572;DHT22;17348;50.948;10.696;2023-07-02T16:54:40;22.50;99.90
30572;DHT22;17348;50.948;10.696;2023-07-02T16:57:42;22.40;99.90
30572;DHT22;17348;50.948;10.696;2023-07-02T17:00:45;22.50;99.90
30572;DHT22;17348;50.948;10.696;2023-07-02T17:03:48;22.50;99.90
30572;DHT22;17348;50.948;10.696;2023-07-02T17:06:53;22.60;99.90
30572;DHT22;17348;50.948;10.696;2023-07-02T17:09:55;22.60;99.90
30572;DHT22;17348;50.948;10.696;2023-07-02T17:12:58;22.50;99.90
30572;DHT22;17348;50.948;10.696;2023-07-02T17:16:01;22.30;99.90
30572;DHT22;17348;50.948;10.696;2023-07-02T17:19:05;22.20;99.90
30572;DHT22;17348;50.948;10.696;2023-07-02T17:22:09;22.00;99.90
30572;DHT22;17348;50.948;10.696;2023-07-02T17:25:12;22.00;99.90
30572;DHT22;17348;50.948;10.696;2023-07-02T17:28:14;21.90;99.90
30572;DHT22;17348;50.948;10.696;2023-07-02T17:31:18;21.90;99.90
30572;DHT22;17348;50.948;10.696;2023-07-02T17:34:24;21.90;99.90
30572;DHT22;17348;50.948;10.696;2023-07-02T17:37:27;22.00;99.90
30572;DHT22;17348;50.948;10.696;2023-07-02T17:40:29;22.00;99.90
30572;DHT22;17348;50.948;10.696;2023-07-02T17:43:33;22.10;99.90
30572;DHT22;17348;50.948;10.696;2023-07-02T17:46:35;22.10;99.90
30572;DHT22;17348;50.948;10.696;2023-07-02T17:49:41;22.10;99.90
30572;DHT22;17348;50.948;10.696;2023-07-02T17:52:44;22.00;99.90
30572;DHT22;17348;50.948;10.696;2023-07-02T17:55:47;21.80;99.90
30572;DHT22;17348;50.948;10.696;2023-07-02T17:58:51;21.70;99.90
30572;DHT22;17348;50.948;10.696;2023-07-02T18:01:53;21.50;99.90
30572;DHT22;17348;50.948;10.696;2023-07-02T18:04:57;21.50;99.90
30572;DHT22;17348;50.948;10.696;2023-07-02T18:07:59;21.60;99.90
30572;DHT22;17348;50.948;10.696;2023-07-02T18:11:02;21.60;99.90
30572;DHT22;17348;50.948;10.696;2023-07-02T18:14:05;21.50;99.90
30572;DHT22;17348;50.948;10.696;2023-07-02T18:17:07;21.60;99.90
30572;DHT22;17348;50.948;10.696;2023-07-02T18:20:12;21.50;99.90
30572;DHT22;17348;50.948;10.696;2023-07-02T18:23:16;21.60;99.90
30572;DHT22;17348;50.948;10.696;2023-07-02T18:26:18;21.70;99.90
30572;DHT22;17348;50.948;10.696;2023-07-02T18:29:21;21.70;99.90
30572;DHT22;17348;50.948;10.696;2023-07-02T18:32:23;21.60;99.90
30572;DHT22;17348;50.948;10.696;2023-07-02T18:35:34;21.40;99.90
30572;DHT22;17348;50.948;10.696;2023-07-02T18:38:37;21.40;99.90
30572;DHT22;17348;50.948;10.696;2023-07-02T18:41:39;21.30;99.90
30572;DHT22;17348;50.948;10.696;2023-07-02T18:44:42;21.30;99.90
30572;DHT22;17348;50.948;10.696;2023-07-02T18:47:44;21.20;99.90
30572;DHT22;17348;50.948;10.696;2023-07-02T18:50:48;21.10;99.90
30572;DHT22;17348;50.948;10.696;2023-07-02T18:53:51;21.00;99.90
30572;DHT22;17348;50.948;10.696;2023-07-02T18:56:53;21.00;99.90
30572;DHT22;17348;50.948;10.696;2023-07-02T18:59:55;20.90;99.90